Time;durP1;ratioP1;P1;durP2;ratioP2;P2;SDS_P1;SDS_P2;PMS_P1;PMS_P2;Temp;Humidity;BMP_temperature;BMP_pressure;BME280_temperature;BME280_humidity;BME280_pressure;Samples;Min_cycle;Max_cycle;Signal;HPM_P1;HPM_P2
2023/06/18 00:08:06;;;;;;;5.70;3.70;;;21.70;1.00;;;;;;20577578;28;20086;-44
2023/06/18 00:18:28;;;;;;;6.35;4.05;;;21.50;1.00;;;;;;20578424;28;20046;-44
2023/06/18 00:28:49;;;;;;;11.90;5.35;;;21.30;1.00;;;;;;20579390;28;20041;-44
2023/06/18 00:39:10;;;;;;;7.28;4.38;;;21.20;1.00;;;;;;20579701;28;20055;-44
2023/06/18 00:49:33;;;;;;;6.63;4.95;;;21.10;1.00;;;;;;20578331;28;20070;-44
2023/06/18 00:59:55;;;;;;;6.63;4.55;;;21.00;1.00;;;;;;20571690;28;20113;-44
2023/06/18 01:10:20;;;;;;;6.97;4.93;;;20.80;1.00;;;;;;20569315;28;20042;-44
2023/06/18 01:20:44;;;;;;;8.40;4.95;;;20.70;1.00;;;;;;20578045;28;20069;-44
2023/06/18 01:31:05;;;;;;;8.05;4.68;;;20.60;1.00;;;;;;20589409;28;20057;-44
2023/06/18 01:41:31;;;;;;;6.40;4.82;;;20.60;1.00;;;;;;20592379;28;20054;-44
2023/06/18 01:51:53;;;;;;;7.43;5.03;;;20.50;1.00;;;;;;20597341;28;20045;-44
2023/06/18 02:02:15;;;;;;;8.82;4.95;;;20.40;1.00;;;;;;20599552;28;20085;-44
2023/06/18 02:12:37;;;;;;;9.15;5.20;;;20.30;1.00;;;;;;20592163;28;20053;-44
2023/06/18 02:22:58;;;;;;;7.53;4.68;;;20.30;1.00;;;;;;20591774;28;20391;-44
2023/06/18 02:43:31;;;;;;;7.30;4.68;;;20.00;1.00;;;;;;20553175;28;20050;-81
2023/06/18 02:53:53;;;;;;;9.55;4.82;;;19.90;1.00;;;;;;20560969;28;20043;-81
2023/06/18 03:04:15;;;;;;;8.95;4.95;;;19.90;1.00;;;;;;20562205;28;20035;-81
2023/06/18 03:14:37;;;;;;;9.93;4.80;;;19.70;1.00;;;;;;20554995;28;20042;-83
2023/06/18 03:25:00;;;;;;;8.68;4.68;;;19.50;1.00;;;;;;20562518;28;20046;-82
2023/06/18 03:35:21;;;;;;;10.57;4.95;;;19.40;1.00;;;;;;20564450;28;20035;-81
2023/06/18 03:45:43;;;;;;;8.95;4.30;;;19.40;1.00;;;;;;20560804;28;20053;-81
2023/06/18 03:56:08;;;;;;;6.60;4.10;;;19.30;1.00;;;;;;20539547;28;20073;-82
2023/06/18 04:06:29;;;;;;;7.18;4.38;;;19.30;1.00;;;;;;20512579;28;20057;-83
2023/06/18 04:16:51;;;;;;;6.72;4.40;;;19.30;1.00;;;;;;20510370;28;20061;-84
2023/06/18 04:27:12;;;;;;;6.53;4.03;;;19.20;1.00;;;;;;20517686;28;20050;-81
2023/06/18 04:37:36;;;;;;;5.15;3.42;;;19.20;1.00;;;;;;20508126;28;20055;-83
2023/06/18 04:47:57;;;;;;;7.43;3.83;;;19.30;1.00;;;;;;20507632;28;20168;-82
2023/06/18 04:58:20;;;;;;;5.95;4.30;;;19.30;1.00;;;;;;20502094;28;20030;-83
2023/06/18 05:08:41;;;;;;;6.47;4.40;;;19.30;1.00;;;;;;20523851;28;20239;-83
2023/06/18 05:19:03;;;;;;;7.60;4.38;;;19.60;1.00;;;;;;20520410;28;20497;-83
2023/06/18 05:29:25;;;;;;;7.53;4.22;;;19.90;1.00;;;;;;20524368;28;20050;-82
2023/06/18 05:39:46;;;;;;;7.18;4.70;;;20.10;1.00;;;;;;20507023;28;20513;-82
2023/06/18 05:50:08;;;;;;;8.32;4.65;;;20.50;1.00;;;;;;20467500;23;20254;-43
2023/06/18 06:00:30;;;;;;;7.55;5.03;;;20.80;1.00;;;;;;20434848;28;20044;-42
2023/06/18 06:10:51;;;;;;;7.82;5.05;;;21.00;1.00;;;;;;20425394;28;20043;-43
2023/06/18 06:21:13;;;;;;;12.00;5.45;;;21.40;1.00;;;;;;20431145;28;20823;-44
2023/06/18 06:31:34;;;;;;;7.75;4.60;;;21.70;1.00;;;;;;20434513;28;20330;-44
2023/06/18 06:41:55;;;;;;;7.57;5.15;;;22.00;1.00;;;;;;20440006;28;20039;-43
2023/06/18 06:52:17;;;;;;;13.32;6.10;;;22.20;1.00;;;;;;20420065;28;20348;-42
2023/06/18 07:02:38;;;;;;;10.27;5.88;;;22.50;1.00;;;;;;20433136;28;20050;-44
2023/06/18 07:13:00;;;;;;;8.65;6.15;;;22.50;1.00;;;;;;20424461;28;20099;-44
2023/06/18 07:23:21;;;;;;;14.57;7.65;;;22.40;1.00;;;;;;20432555;28;20039;-44
2023/06/18 07:33:43;;;;;;;11.02;6.03;;;22.20;1.00;;;;;;20419190;28;20063;-44
2023/06/18 07:44:04;;;;;;;10.93;6.43;;;22.30;1.00;;;;;;20408485;28;20166;-45
2023/06/18 07:54:26;;;;;;;9.52;6.40;;;22.50;1.00;;;;;;20409800;28;20071;-44
2023/06/18 08:04:47;;;;;;;11.20;6.57;;;23.00;1.00;;;;;;20411321;28;20195;-42
2023/06/18 08:15:10;;;;;;;7.68;5.10;;;23.20;1.00;;;;;;20418352;28;20592;-42
2023/06/18 08:25:31;;;;;;;8.80;6.10;;;23.40;1.00;;;;;;20413391;28;20043;-41
2023/06/18 08:35:53;;;;;;;6.65;5.28;;;23.70;1.00;;;;;;20407013;28;20066;-42
2023/06/18 08:46:16;;;;;;;8.75;6.22;;;24.00;1.00;;;;;;20410697;28;20047;-42
2023/06/18 08:56:43;;;;;;;8.95;6.47;;;24.30;1.00;;;;;;20407983;28;20040;-42
2023/06/18 09:07:06;;;;;;;9.77;6.22;;;24.20;1.00;;;;;;20422192;28;20035;-42
2023/06/18 09:17:27;;;;;;;9.55;5.30;;;24.00;1.00;;;;;;20445630;28;20583;-42
2023/06/18 09:27:49;;;;;;;7.78;5.32;;;24.00;1.00;;;;;;20442612;28;20047;-42
2023/06/18 09:38:10;;;;;;;9.98;5.82;;;24.10;1.00;;;;;;20406194;28;20050;-41
2023/06/18 09:48:45;;;;;;;9.07;6.03;;;24.30;1.00;;;;;;20432525;28;20579;-42
2023/06/18 09:59:19;;;;;;;7.22;5.75;;;24.30;1.00;;;;;;20436763;29;20039;-42
2023/06/18 10:09:42;;;;;;;8.13;6.28;;;24.50;1.00;;;;;;20439167;28;20035;-42
2023/06/18 10:20:04;;;;;;;8.65;6.53;;;24.50;1.00;;;;;;20441718;28;20074;-42
2023/06/18 10:30:26;;;;;;;7.82;5.32;;;24.60;1.00;;;;;;20446480;28;20039;-42
2023/06/18 10:40:47;;;;;;;6.13;4.75;;;24.70;1.00;;;;;;20450010;28;20458;-42
2023/06/18 10:51:17;;;;;;;8.88;5.90;;;24.70;1.00;;;;;;20448305;28;20582;-42
2023/06/18 11:01:42;;;;;;;8.38;6.13;;;24.70;1.00;;;;;;20436792;29;20043;-42
2023/06/18 11:12:03;;;;;;;8.75;5.03;;;24.70;1.00;;;;;;20454325;28;20043;-42
2023/06/18 11:22:25;;;;;;;8.65;5.43;;;24.70;1.00;;;;;;20434244;28;20418;-42
2023/06/18 11:32:47;;;;;;;6.53;5.05;;;25.00;1.00;;;;;;20445361;28;20050;-42
2023/06/18 11:43:08;;;;;;;7.72;5.00;;;25.20;1.00;;;;;;20430841;28;20238;-42
2023/06/18 11:53:30;;;;;;;7.45;5.20;;;25.40;1.00;;;;;;20436991;28;20058;-42
2023/06/18 12:03:51;;;;;;;5.60;4.57;;;25.30;1.00;;;;;;20435583;28;20031;-42
2023/06/18 12:14:25;;;;;;;7.20;5.38;;;25.30;1.00;;;;;;20432837;29;20043;-42
2023/06/18 12:24:47;;;;;;;7.53;5.20;;;25.20;1.00;;;;;;20433786;28;20046;-42
2023/06/18 12:35:09;;;;;;;5.50;4.22;;;25.20;1.00;;;;;;20436500;28;20758;-42
2023/06/18 12:45:32;;;;;;;6.32;4.20;;;25.20;1.00;;;;;;20442968;29;20054;-42
2023/06/18 12:56:14;;;;;;;4.65;3.72;;;25.30;1.00;;;;;;20436981;28;20115;-41
2023/06/18 13:06:35;;;;;;;6.43;4.00;;;25.00;1.00;;;;;;20434094;28;20043;-42
2023/06/18 13:17:01;;;;;;;7.50;4.80;;;24.80;1.00;;;;;;20435306;28;20040;-41
2023/06/18 13:27:23;;;;;;;5.90;4.60;;;24.80;1.00;;;;;;20452232;28;20474;-42
2023/06/18 13:37:44;;;;;;;5.78;4.53;;;24.70;1.00;;;;;;20451518;29;20055;-42
2023/06/18 13:48:06;;;;;;;5.03;3.80;;;24.60;1.00;;;;;;20455779;28;20046;-42
2023/06/18 13:58:28;;;;;;;7.85;4.25;;;24.60;1.00;;;;;;20453597;28;20031;-42
2023/06/18 14:08:50;;;;;;;6.85;4.00;;;24.70;1.00;;;;;;20445145;28;20043;-41
2023/06/18 14:19:14;;;;;;;6.32;4.40;;;24.70;1.00;;;;;;20457629;28;20509;-42
2023/06/18 14:29:35;;;;;;;5.40;4.25;;;24.90;1.00;;;;;;20433486;29;20105;-42
2023/06/18 14:39:57;;;;;;;6.63;4.90;;;25.00;1.00;;;;;;20448462;28;20047;-42
2023/06/18 14:50:18;;;;;;;5.53;4.40;;;25.10;1.00;;;;;;20443564;28;20051;-41
2023/06/18 15:00:40;;;;;;;7.75;4.30;;;25.20;1.00;;;;;;20442474;28;20285;-42
2023/06/18 15:11:01;;;;;;;6.50;3.70;;;25.30;1.00;;;;;;20442488;28;20039;-41
2023/06/18 15:21:22;;;;;;;5.40;4.00;;;25.20;1.00;;;;;;20437725;28;20051;-41
2023/06/18 15:31:45;;;;;;;4.97;4.25;;;25.10;1.00;;;;;;20445118;28;20720;-42
2023/06/18 15:42:06;;;;;;;5.72;3.72;;;25.20;1.00;;;;;;20438372;28;20556;-42
2023/06/18 15:52:27;;;;;;;5.32;3.88;;;25.30;1.00;;;;;;20432551;29;20051;-42
2023/06/18 16:02:49;;;;;;;6.50;4.25;;;25.20;1.00;;;;;;20423353;28;20194;-42
2023/06/18 16:13:10;;;;;;;5.35;4.13;;;25.10;1.00;;;;;;20435056;28;20237;-42
2023/06/18 16:23:32;;;;;;;5.35;4.05;;;25.00;1.00;;;;;;20438263;28;20772;-42
2023/06/18 16:33:53;;;;;;;5.85;4.60;;;24.90;1.00;;;;;;20443861;28;20051;-42
2023/06/18 16:44:14;;;;;;;10.13;4.82;;;24.80;1.00;;;;;;20441459;28;20047;-41
2023/06/18 16:54:35;;;;;;;4.30;3.20;;;24.70;1.00;;;;;;20441238;28;20043;-42
2023/06/18 17:04:57;;;;;;;3.80;2.85;;;24.60;1.00;;;;;;20402062;28;20039;-42
2023/06/18 17:15:18;;;;;;;4.88;3.33;;;24.30;1.00;;;;;;20430412;28;20070;-42
2023/06/18 17:25:39;;;;;;;5.47;3.53;;;24.20;1.00;;;;;;20436641;28;20050;-42
2023/06/18 17:36:02;;;;;;;6.70;4.32;;;24.20;1.00;;;;;;20423885;29;20534;-42
2023/06/18 17:46:23;;;;;;;4.70;3.15;;;24.20;1.00;;;;;;20425183;28;20062;-42
2023/06/18 17:56:45;;;;;;;6.07;3.72;;;24.20;1.00;;;;;;20435027;28;20040;-42
2023/06/18 18:07:06;;;;;;;5.57;3.47;;;24.20;1.00;;;;;;20426831;28;20058;-42
2023/06/18 18:17:27;;;;;;;5.47;3.70;;;24.20;1.00;;;;;;20442416;28;20043;-42
2023/06/18 18:27:49;;;;;;;5.40;4.00;;;24.20;1.00;;;;;;20437370;29;20051;-42
2023/06/18 18:38:10;;;;;;;4.88;3.85;;;24.10;1.00;;;;;;20429617;28;20040;-42
2023/06/18 18:48:32;;;;;;;5.28;3.70;;;24.10;1.00;;;;;;20443396;28;20039;-42
2023/06/18 18:58:53;;;;;;;4.32;3.42;;;24.00;1.00;;;;;;20441285;29;20042;-44
2023/06/18 19:09:15;;;;;;;4.90;3.28;;;23.80;1.00;;;;;;20442668;28;20467;-44
2023/06/18 19:19:36;;;;;;;6.18;4.65;;;23.80;1.00;;;;;;20448771;28;20542;-44
2023/06/18 19:29:58;;;;;;;5.38;4.32;;;23.70;1.00;;;;;;20441410;28;20043;-44
2023/06/18 19:40:19;;;;;;;7.07;4.65;;;23.70;1.00;;;;;;20447579;28;20047;-44
2023/06/18 19:50:41;;;;;;;6.95;4.63;;;23.60;1.00;;;;;;20433766;28;20680;-44
2023/06/18 20:01:03;;;;;;;6.43;4.53;;;23.50;1.00;;;;;;20441169;28;20046;-44
2023/06/18 20:11:24;;;;;;;6.40;4.70;;;23.40;1.00;;;;;;20414052;28;20050;-43
2023/06/18 20:21:46;;;;;;;6.05;5.15;;;23.30;1.00;;;;;;20410680;28;20050;-44
2023/06/18 20:32:07;;;;;;;6.22;4.53;;;23.20;1.00;;;;;;20429079;28;20187;-44
2023/06/18 20:42:28;;;;;;;7.85;4.90;;;23.10;1.00;;;;;;20423405;28;20047;-44
2023/06/18 20:52:50;;;;;;;6.70;5.03;;;23.00;1.00;;;;;;20436961;28;20058;-44
2023/06/18 21:03:11;;;;;;;6.45;5.10;;;22.90;1.00;;;;;;20420794;28;20507;-44
2023/06/18 21:13:33;;;;;;;7.50;5.25;;;22.60;1.00;;;;;;20421199;28;20062;-44
2023/06/18 21:23:54;;;;;;;6.93;5.47;;;22.30;1.00;;;;;;20409240;28;20046;-43
2023/06/18 21:34:15;;;;;;;6.93;5.50;;;22.20;1.00;;;;;;20414514;28;20047;-44
2023/06/18 21:44:37;;;;;;;6.85;5.22;;;22.00;1.00;;;;;;20426318;28;20075;-43
2023/06/18 21:54:58;;;;;;;8.10;5.90;;;22.10;1.00;;;;;;20431854;28;20636;-44
2023/06/18 22:05:19;;;;;;;6.93;5.10;;;22.10;1.00;;;;;;20429297;28;20043;-43
2023/06/18 22:15:41;;;;;;;9.10;5.35;;;22.20;1.00;;;;;;20431529;28;20606;-44
2023/06/18 22:26:03;;;;;;;8.05;5.28;;;22.30;1.00;;;;;;20428468;28;20050;-45
2023/06/18 22:36:24;;;;;;;5.72;4.38;;;22.30;1.00;;;;;;20429344;28;20384;-45
2023/06/18 22:46:46;;;;;;;7.07;5.18;;;22.40;1.00;;;;;;20432728;28;20736;-45
2023/06/18 22:57:07;;;;;;;7.32;4.82;;;22.50;1.00;;;;;;20427572;28;20047;-42
2023/06/18 23:07:28;;;;;;;7.18;5.38;;;22.50;1.00;;;;;;20426520;28;20039;-45
2023/06/18 23:17:50;;;;;;;6.65;4.90;;;22.50;1.00;;;;;;20428050;28;20239;-45
2023/06/18 23:28:11;;;;;;;9.40;5.45;;;22.50;1.00;;;;;;20426739;28;20043;-45
2023/06/18 23:38:32;;;;;;;7.47;5.68;;;22.50;1.00;;;;;;20424775;28;20346;-44
2023/06/18 23:48:54;;;;;;;8.85;5.32;;;22.60;1.00;;;;;;20421439;28;20453;-44
2023/06/18 23:59:15;;;;;;;7.43;5.57;;;22.90;1.00;;;;;;20420942;28;20066;-44
